createdAt,value
2018-12-12T00:00:16.325Z,1018.02
2018-12-12T00:00:42.439Z,1018.04
2018-12-12T00:01:08.538Z,1018.03
2018-12-12T00:01:34.646Z,1018.05
2018-12-12T00:02:00.752Z,1018.06
2018-12-12T00:02:26.858Z,1018.06
2018-12-12T00:02:52.968Z,1018.04
2018-12-12T00:03:19.072Z,1018.05
2018-12-12T00:03:45.233Z,1018.08
2018-12-12T00:04:11.328Z,1018.06
2018-12-12T00:04:37.457Z,1018.06
2018-12-12T00:05:03.565Z,1018.02
2018-12-12T00:05:29.680Z,1018.01
2018-12-12T00:05:55.803Z,1018.03
2018-12-12T00:06:21.923Z,1018.07
2018-12-12T00:06:48.024Z,1018.08
2018-12-12T00:07:14.149Z,1018.09
2018-12-12T00:07:40.266Z,1018.1
2018-12-12T00:08:06.372Z,1018.06
2018-12-12T00:08:32.509Z,1018.04
2018-12-12T00:08:58.618Z,1018.07
2018-12-12T00:09:24.743Z,1018.07
2018-12-12T00:09:50.857Z,1018.02
2018-12-12T00:10:17.006Z,1018.07
2018-12-12T00:10:43.112Z,1018.09
2018-12-12T00:11:09.244Z,1018.05
2018-12-12T00:11:35.409Z,1018.05
2018-12-12T00:12:01.573Z,1018.08
2018-12-12T00:12:27.667Z,1018.11
2018-12-12T00:12:53.769Z,1018.08
2018-12-12T00:13:19.873Z,1018.09
2018-12-12T00:13:46.019Z,1018.08
2018-12-12T00:14:12.136Z,1018.08
2018-12-12T00:14:38.238Z,1018.06
2018-12-12T00:15:04.365Z,1018.05
2018-12-12T00:15:30.468Z,1018.08
2018-12-12T00:15:56.576Z,1018.03
2018-12-12T00:16:22.681Z,1018.06
2018-12-12T00:16:48.790Z,1018.04
2018-12-12T00:17:14.890Z,1018.04
2018-12-12T00:17:41.001Z,1018.06
2018-12-12T00:18:07.146Z,1018.02
2018-12-12T00:18:33.251Z,1018.01
2018-12-12T00:18:59.357Z,1017.98
2018-12-12T00:19:25.489Z,1018
2018-12-12T00:19:51.624Z,1018
2018-12-12T00:20:17.761Z,1017.95
2018-12-12T00:20:43.864Z,1018.01
2018-12-12T00:21:09.966Z,1018.01
2018-12-12T00:21:36.075Z,1017.98
2018-12-12T00:22:02.181Z,1018.01
2018-12-12T00:22:28.314Z,1018.01
2018-12-12T00:22:54.417Z,1018.05
2018-12-12T00:23:20.547Z,1017.98
2018-12-12T00:23:46.652Z,1018.01
2018-12-12T00:24:12.762Z,1017.96
2018-12-12T00:24:38.864Z,1018.01
2018-12-12T00:25:04.969Z,1018.02
2018-12-12T00:25:31.077Z,1017.99
2018-12-12T00:25:57.232Z,1017.99
2018-12-12T00:26:23.338Z,1017.96
2018-12-12T00:26:49.473Z,1017.99
2018-12-12T00:27:15.570Z,1017.97
2018-12-12T00:27:41.675Z,1017.99
2018-12-12T00:28:07.776Z,1017.98
2018-12-12T00:28:33.890Z,1017.99
2018-12-12T00:28:59.990Z,1017.95
2018-12-12T00:29:26.097Z,1017.97
2018-12-12T00:29:52.235Z,1017.96
2018-12-12T00:30:18.344Z,1018
2018-12-12T00:30:44.445Z,1017.94
2018-12-12T00:31:10.550Z,1017.98
2018-12-12T00:31:36.660Z,1018.02
2018-12-12T00:32:02.767Z,1018
2018-12-12T00:32:28.871Z,1018.02
2018-12-12T00:32:54.978Z,1018.01
2018-12-12T00:33:21.093Z,1018.01
2018-12-12T00:33:47.221Z,1018.01
2018-12-12T00:34:13.321Z,1018.06
2018-12-12T00:34:39.423Z,1018.02
2018-12-12T00:35:05.536Z,1018.07
2018-12-12T00:35:31.639Z,1018.08
2018-12-12T00:35:57.773Z,1018.11
2018-12-12T00:36:23.879Z,1018.09
2018-12-12T00:36:49.983Z,1018.12
2018-12-12T00:37:16.090Z,1018.1
2018-12-12T00:37:42.219Z,1018.14
2018-12-12T00:38:08.325Z,1018.11
2018-12-12T00:38:34.437Z,1018.12
2018-12-12T00:39:00.538Z,1018.11
2018-12-12T00:39:26.671Z,1018.11
2018-12-12T00:39:52.773Z,1018.1
2018-12-12T00:40:18.876Z,1018.1
2018-12-12T00:40:44.986Z,1018.11
2018-12-12T00:41:11.095Z,1018.09
2018-12-12T00:41:37.200Z,1018.1
2018-12-12T00:42:03.301Z,1018.1
2018-12-12T00:42:29.435Z,1018.07
2018-12-12T00:42:55.573Z,1018.1
2018-12-12T00:43:21.667Z,1018.07
2018-12-12T00:43:47.778Z,1018.09
2018-12-12T00:44:13.879Z,1018.1
2018-12-12T00:44:39.979Z,1018.14
2018-12-12T00:45:06.083Z,1018.11
2018-12-12T00:45:32.188Z,1018.12
2018-12-12T00:45:58.297Z,1018.14
2018-12-12T00:46:24.423Z,1018.13
2018-12-12T00:46:50.524Z,1018.14
2018-12-12T00:47:16.645Z,1018.15
2018-12-12T00:47:42.781Z,1018.14
2018-12-12T00:48:08.882Z,1018.1
2018-12-12T00:48:34.985Z,1018.15
2018-12-12T00:49:01.082Z,1018.18
2018-12-12T00:49:27.190Z,1018.16
2018-12-12T00:49:53.324Z,1018.13
2018-12-12T00:50:19.432Z,1018.13
2018-12-12T00:50:45.562Z,1018.17
2018-12-12T00:51:11.700Z,1018.15
2018-12-12T00:51:37.822Z,1018.16
2018-12-12T00:52:03.935Z,1018.18
2018-12-12T00:52:30.066Z,1018.2
2018-12-12T00:52:56.161Z,1018.18
2018-12-12T00:53:22.292Z,1018.17
2018-12-12T00:53:48.399Z,1018.16
2018-12-12T00:54:14.512Z,1018.13
2018-12-12T00:54:40.677Z,1018.12
2018-12-12T00:55:06.743Z,1018.15
2018-12-12T00:55:32.852Z,1018.19
2018-12-12T00:55:58.958Z,1018.15
2018-12-12T00:56:25.065Z,1018.14
2018-12-12T00:56:51.175Z,1018.16
2018-12-12T00:57:17.278Z,1018.17
2018-12-12T00:57:43.382Z,1018.15
2018-12-12T00:58:09.489Z,1018.15
2018-12-12T00:58:35.596Z,1018.16
2018-12-12T00:59:01.703Z,1018.12
2018-12-12T00:59:27.813Z,1018.11
2018-12-12T00:59:53.912Z,1018.14
2018-12-12T01:00:20.020Z,1018.14
2018-12-12T01:00:46.124Z,1018.12
2018-12-12T01:01:12.233Z,1018.13
2018-12-12T01:01:38.345Z,1018.08
2018-12-12T01:02:04.474Z,1018.07
2018-12-12T01:02:30.580Z,1018.09
2018-12-12T01:02:56.687Z,1018.09
2018-12-12T01:03:22.788Z,1018.12
2018-12-12T01:03:48.894Z,1018.1
2018-12-12T01:04:14.997Z,1018.06
2018-12-12T01:04:41.108Z,1018.07
2018-12-12T01:05:07.209Z,1018.07
2018-12-12T01:05:33.310Z,1018.08
2018-12-12T01:05:59.415Z,1018.06
2018-12-12T01:06:25.551Z,1018.09
2018-12-12T01:06:51.651Z,1018.12
2018-12-12T01:07:17.758Z,1018.08
2018-12-12T01:07:43.861Z,1018.11
2018-12-12T01:08:09.959Z,1018.06
2018-12-12T01:08:36.066Z,1018.08
2018-12-12T01:09:02.172Z,1018.08
2018-12-12T01:09:28.273Z,1018.06
2018-12-12T01:09:54.375Z,1018.1
2018-12-12T01:10:20.514Z,1018.07
2018-12-12T01:10:46.621Z,1018.07
2018-12-12T01:11:12.726Z,1018.07
2018-12-12T01:11:38.833Z,1018.09
2018-12-12T01:12:04.938Z,1018.07
2018-12-12T01:12:31.042Z,1018.08
2018-12-12T01:12:57.146Z,1018.07
2018-12-12T01:13:23.251Z,1018.09
2018-12-12T01:13:49.365Z,1018.13
2018-12-12T01:14:15.466Z,1018.14
2018-12-12T01:14:41.573Z,1018.15
2018-12-12T01:15:07.708Z,1018.13
2018-12-12T01:15:33.869Z,1018.16
2018-12-12T01:15:59.968Z,1018.15
2018-12-12T01:16:26.077Z,1018.19
2018-12-12T01:16:52.187Z,1018.19
2018-12-12T01:17:18.289Z,1018.19
2018-12-12T01:17:44.397Z,1018.18
2018-12-12T01:18:10.502Z,1018.19
2018-12-12T01:18:36.605Z,1018.19
2018-12-12T01:19:02.712Z,1018.19
2018-12-12T01:19:28.822Z,1018.16
2018-12-12T01:19:54.953Z,1018.17
2018-12-12T01:20:21.061Z,1018.21
2018-12-12T01:20:47.157Z,1018.17
2018-12-12T01:21:13.261Z,1018.21
2018-12-12T01:21:39.397Z,1018.18
2018-12-12T01:22:05.523Z,1018.23
2018-12-12T01:22:31.631Z,1018.22
2018-12-12T01:22:57.739Z,1018.13
2018-12-12T01:23:23.842Z,1018.19
2018-12-12T01:23:49.949Z,1018.23
2018-12-12T01:24:16.083Z,1018.17
2018-12-12T01:24:42.212Z,1018.19
2018-12-12T01:25:08.346Z,1018.19
2018-12-12T01:25:34.455Z,1018.17
2018-12-12T01:26:00.591Z,1018.16
2018-12-12T01:26:26.698Z,1018.19
2018-12-12T01:26:52.808Z,1018.19
2018-12-12T01:27:18.911Z,1018.21
2018-12-12T01:27:45.047Z,1018.17
2018-12-12T01:28:11.156Z,1018.2
2018-12-12T01:28:37.260Z,1018.22
2018-12-12T01:29:03.360Z,1018.18
2018-12-12T01:29:29.468Z,1018.2
2018-12-12T01:29:55.580Z,1018.22
2018-12-12T01:30:21.679Z,1018.2
2018-12-12T01:30:47.823Z,1018.22
2018-12-12T01:31:13.981Z,1018.25
2018-12-12T01:31:40.316Z,1018.27
2018-12-12T01:32:06.472Z,1018.28
2018-12-12T01:32:32.616Z,1018.25
2018-12-12T01:32:58.720Z,1018.28
2018-12-12T01:33:24.817Z,1018.19
2018-12-12T01:33:50.925Z,1018.27
2018-12-12T01:34:17.034Z,1018.24
2018-12-12T01:34:43.134Z,1018.31
2018-12-12T01:35:09.267Z,1018.23
2018-12-12T01:35:35.374Z,1018.24
2018-12-12T01:36:01.513Z,1018.26
2018-12-12T01:36:27.621Z,1018.24
2018-12-12T01:36:53.722Z,1018.2
2018-12-12T01:37:19.829Z,1018.26
2018-12-12T01:37:45.933Z,1018.24
2018-12-12T01:38:12.062Z,1018.25
2018-12-12T01:38:38.167Z,1018.28
2018-12-12T01:39:04.275Z,1018.23
2018-12-12T01:39:30.406Z,1018.25
2018-12-12T01:39:56.509Z,1018.24
2018-12-12T01:40:22.613Z,1018.23
2018-12-12T01:40:48.728Z,1018.29
2018-12-12T01:41:14.831Z,1018.28
2018-12-12T01:41:40.935Z,1018.26
2018-12-12T01:42:07.037Z,1018.28
2018-12-12T01:42:33.172Z,1018.29
2018-12-12T01:42:59.275Z,1018.31
2018-12-12T01:43:25.385Z,1018.24
2018-12-12T01:43:51.488Z,1018.3
2018-12-12T01:44:17.598Z,1018.32
2018-12-12T01:44:43.706Z,1018.35
2018-12-12T01:45:09.808Z,1018.28
2018-12-12T01:45:35.917Z,1018.32
2018-12-12T01:46:02.021Z,1018.34
2018-12-12T01:46:28.131Z,1018.31
2018-12-12T01:46:54.227Z,1018.32
2018-12-12T01:47:20.396Z,1018.3
2018-12-12T01:47:46.499Z,1018.29
2018-12-12T01:48:12.602Z,1018.29
2018-12-12T01:48:38.709Z,1018.32
2018-12-12T01:49:04.810Z,1018.3
2018-12-12T01:49:30.912Z,1018.28
2018-12-12T01:49:57.020Z,1018.28
2018-12-12T01:50:23.158Z,1018.3
2018-12-12T01:50:49.278Z,1018.29
2018-12-12T01:51:15.398Z,1018.29
2018-12-12T01:51:41.496Z,1018.34
2018-12-12T01:52:07.635Z,1018.31
2018-12-12T01:52:33.741Z,1018.33
2018-12-12T01:52:59.849Z,1018.34
2018-12-12T01:53:25.955Z,1018.34
2018-12-12T01:53:52.052Z,1018.31
2018-12-12T01:54:18.158Z,1018.35
2018-12-12T01:54:44.266Z,1018.28
2018-12-12T01:55:10.401Z,1018.29
2018-12-12T01:55:36.503Z,1018.28
2018-12-12T01:56:02.606Z,1018.27
2018-12-12T01:56:28.705Z,1018.29
2018-12-12T01:56:54.807Z,1018.28
2018-12-12T01:57:20.920Z,1018.26
2018-12-12T01:57:47.024Z,1018.28
2018-12-12T01:58:13.130Z,1018.3
2018-12-12T01:58:39.242Z,1018.25
2018-12-12T01:59:05.339Z,1018.27
2018-12-12T01:59:31.438Z,1018.28
2018-12-12T01:59:57.576Z,1018.2
2018-12-12T02:00:23.683Z,1018.25
2018-12-12T02:00:49.816Z,1018.27
2018-12-12T02:01:15.952Z,1018.26
2018-12-12T02:01:42.060Z,1018.25
2018-12-12T02:02:08.191Z,1018.28
2018-12-12T02:02:34.301Z,1018.22
2018-12-12T02:03:00.469Z,1018.2
2018-12-12T02:03:26.641Z,1018.23
2018-12-12T02:03:52.709Z,1018.22
2018-12-12T02:04:18.816Z,1018.29
2018-12-12T02:04:44.920Z,1018.27
2018-12-12T02:05:11.028Z,1018.27
2018-12-12T02:05:37.141Z,1018.28
2018-12-12T02:06:03.269Z,1018.27
2018-12-12T02:06:29.374Z,1018.28
2018-12-12T02:06:55.481Z,1018.32
2018-12-12T02:07:21.581Z,1018.29
2018-12-12T02:07:47.685Z,1018.28
2018-12-12T02:08:13.791Z,1018.28
2018-12-12T02:08:39.901Z,1018.28
2018-12-12T02:09:07.024Z,1018.3
2018-12-12T02:09:33.187Z,1018.27
2018-12-12T02:09:59.296Z,1018.33
2018-12-12T02:10:25.426Z,1018.31
2018-12-12T02:10:51.527Z,1018.31
2018-12-12T02:11:17.634Z,1018.31
2018-12-12T02:11:43.746Z,1018.35
2018-12-12T02:12:09.847Z,1018.33
2018-12-12T02:12:35.965Z,1018.34
2018-12-12T02:13:02.067Z,1018.34
2018-12-12T02:13:28.172Z,1018.37
2018-12-12T02:13:54.272Z,1018.38
2018-12-12T02:14:20.384Z,1018.39
2018-12-12T02:14:46.483Z,1018.36
2018-12-12T02:15:12.592Z,1018.37
2018-12-12T02:15:38.697Z,1018.37
2018-12-12T02:16:04.795Z,1018.35
2018-12-12T02:16:30.895Z,1018.4
2018-12-12T02:16:57.001Z,1018.39
2018-12-12T02:17:23.110Z,1018.37
2018-12-12T02:17:49.216Z,1018.41
2018-12-12T02:18:15.326Z,1018.39
2018-12-12T02:18:41.430Z,1018.42
2018-12-12T02:19:07.537Z,1018.41
2018-12-12T02:19:33.631Z,1018.41
2018-12-12T02:19:59.774Z,1018.43
2018-12-12T02:20:25.897Z,1018.47
2018-12-12T02:20:52.005Z,1018.46
2018-12-12T02:21:18.110Z,1018.48
2018-12-12T02:21:44.221Z,1018.47
2018-12-12T02:22:10.327Z,1018.56
2018-12-12T02:22:36.456Z,1018.47
2018-12-12T02:23:02.558Z,1018.5
2018-12-12T02:23:28.673Z,1018.56
2018-12-12T02:23:54.778Z,1018.5
2018-12-12T02:24:20.883Z,1018.54
2018-12-12T02:24:46.987Z,1018.54
2018-12-12T02:25:13.122Z,1018.57
2018-12-12T02:25:39.256Z,1018.54
2018-12-12T02:26:05.368Z,1018.53
2018-12-12T02:26:31.503Z,1018.55
2018-12-12T02:26:57.609Z,1018.55
2018-12-12T02:27:23.741Z,1018.6
2018-12-12T02:27:49.850Z,1018.6
2018-12-12T02:28:15.982Z,1018.59
2018-12-12T02:28:42.088Z,1018.62
2018-12-12T02:29:08.222Z,1018.63
2018-12-12T02:29:34.327Z,1018.6
2018-12-12T02:30:00.437Z,1018.62
2018-12-12T02:30:26.586Z,1018.57
2018-12-12T02:30:52.725Z,1018.56
2018-12-12T02:31:18.826Z,1018.6
2018-12-12T02:31:44.935Z,1018.61
2018-12-12T02:32:11.122Z,1018.6
2018-12-12T02:32:37.166Z,1018.59
2018-12-12T02:33:03.336Z,1018.56
2018-12-12T02:33:29.434Z,1018.57
2018-12-12T02:33:55.573Z,1018.6
2018-12-12T02:34:21.676Z,1018.58
2018-12-12T02:34:47.787Z,1018.57
2018-12-12T02:35:13.916Z,1018.63
2018-12-12T02:35:40.076Z,1018.6
2018-12-12T02:36:06.188Z,1018.64
2018-12-12T02:36:32.313Z,1018.64
2018-12-12T02:36:58.411Z,1018.65
2018-12-12T02:37:24.524Z,1018.64
2018-12-12T02:37:50.659Z,1018.64
2018-12-12T02:38:16.766Z,1018.65
2018-12-12T02:38:42.891Z,1018.67
2018-12-12T02:39:09.000Z,1018.59
2018-12-12T02:39:35.099Z,1018.6
2018-12-12T02:40:01.235Z,1018.65
2018-12-12T02:40:27.366Z,1018.64
2018-12-12T02:40:53.499Z,1018.59
2018-12-12T02:41:19.597Z,1018.57
2018-12-12T02:41:45.706Z,1018.55
2018-12-12T02:42:11.808Z,1018.56
2018-12-12T02:42:37.944Z,1018.56
2018-12-12T02:43:04.047Z,1018.56
2018-12-12T02:43:30.185Z,1018.5
2018-12-12T02:43:57.105Z,1018.52
2018-12-12T02:44:23.238Z,1018.51
2018-12-12T02:44:49.342Z,1018.5
2018-12-12T02:45:15.445Z,1018.54
2018-12-12T02:45:41.582Z,1018.53
2018-12-12T02:46:07.679Z,1018.48
2018-12-12T02:46:33.787Z,1018.5
2018-12-12T02:46:59.891Z,1018.51
2018-12-12T02:47:26.022Z,1018.49
2018-12-12T02:47:52.137Z,1018.49
2018-12-12T02:48:18.280Z,1018.52
2018-12-12T02:48:44.443Z,1018.52
2018-12-12T02:49:10.591Z,1018.52
2018-12-12T02:49:37.641Z,1018.55
2018-12-12T02:50:03.751Z,1018.5
2018-12-12T02:50:29.861Z,1018.5
2018-12-12T02:50:55.969Z,1018.48
2018-12-12T02:51:22.063Z,1018.53
2018-12-12T02:51:48.167Z,1018.5
2018-12-12T02:52:14.275Z,1018.51
2018-12-12T02:52:40.373Z,1018.48
2018-12-12T02:53:06.485Z,1018.46
2018-12-12T02:53:32.614Z,1018.46
2018-12-12T02:53:58.724Z,1018.5
2018-12-12T02:54:24.857Z,1018.48
2018-12-12T02:54:50.993Z,1018.45
2018-12-12T02:55:17.127Z,1018.47
2018-12-12T02:55:43.229Z,1018.48
2018-12-12T02:56:09.356Z,1018.46
2018-12-12T02:56:35.457Z,1018.49
2018-12-12T02:57:01.596Z,1018.49
2018-12-12T02:57:27.705Z,1018.46
2018-12-12T02:57:53.805Z,1018.49
2018-12-12T02:58:19.912Z,1018.5
2018-12-12T02:58:46.049Z,1018.51
2018-12-12T02:59:12.209Z,1018.5
2018-12-12T02:59:38.327Z,1018.51
2018-12-12T03:00:04.444Z,1018.51
2018-12-12T03:00:30.549Z,1018.5
2018-12-12T03:00:56.654Z,1018.56
2018-12-12T03:01:22.816Z,1018.52
2018-12-12T03:01:48.953Z,1018.54
2018-12-12T03:02:15.092Z,1018.55
2018-12-12T03:02:41.192Z,1018.55
2018-12-12T03:03:07.297Z,1018.55
2018-12-12T03:03:33.419Z,1018.54
2018-12-12T03:03:59.519Z,1018.57
2018-12-12T03:04:25.618Z,1018.54
2018-12-12T03:04:51.721Z,1018.54
2018-12-12T03:05:17.879Z,1018.55
2018-12-12T03:05:43.985Z,1018.54
2018-12-12T03:06:10.089Z,1018.51
2018-12-12T03:06:36.190Z,1018.54
2018-12-12T03:07:02.298Z,1018.56
2018-12-12T03:07:28.404Z,1018.55
2018-12-12T03:07:54.517Z,1018.53
2018-12-12T03:08:20.632Z,1018.55
2018-12-12T03:08:46.737Z,1018.53
2018-12-12T03:09:12.880Z,1018.58
2018-12-12T03:09:38.991Z,1018.61
2018-12-12T03:10:05.090Z,1018.63
2018-12-12T03:10:31.199Z,1018.63
2018-12-12T03:10:57.302Z,1018.65
2018-12-12T03:11:23.436Z,1018.67
2018-12-12T03:11:49.536Z,1018.65
2018-12-12T03:12:15.649Z,1018.67
2018-12-12T03:12:41.782Z,1018.64
2018-12-12T03:13:07.887Z,1018.66
2018-12-12T03:13:33.988Z,1018.66
2018-12-12T03:14:00.095Z,1018.63
2018-12-12T03:14:26.199Z,1018.64
2018-12-12T03:14:52.305Z,1018.69
2018-12-12T03:15:18.403Z,1018.69
2018-12-12T03:15:44.538Z,1018.68
2018-12-12T03:16:10.636Z,1018.7
2018-12-12T03:16:36.740Z,1018.69
2018-12-12T03:17:02.875Z,1018.69
2018-12-12T03:17:28.979Z,1018.68
2018-12-12T03:17:55.078Z,1018.69
2018-12-12T03:18:21.185Z,1018.7
2018-12-12T03:18:47.286Z,1018.73
2018-12-12T03:19:13.396Z,1018.74
2018-12-12T03:19:39.527Z,1018.74
2018-12-12T03:20:05.632Z,1018.73
2018-12-12T03:20:31.740Z,1018.73
2018-12-12T03:20:57.869Z,1018.75
2018-12-12T03:21:23.974Z,1018.74
2018-12-12T03:21:50.102Z,1018.74
2018-12-12T03:22:16.236Z,1018.77
2018-12-12T03:22:42.413Z,1018.75
2018-12-12T03:23:08.523Z,1018.77
2018-12-12T03:23:34.631Z,1018.8
2018-12-12T03:24:00.772Z,1018.77
2018-12-12T03:24:26.877Z,1018.78
2018-12-12T03:24:52.976Z,1018.81
2018-12-12T03:25:19.082Z,1018.81
2018-12-12T03:25:45.213Z,1018.81
2018-12-12T03:26:11.318Z,1018.84
2018-12-12T03:26:37.449Z,1018.83
2018-12-12T03:27:03.557Z,1018.84
2018-12-12T03:27:29.658Z,1018.83
2018-12-12T03:27:55.767Z,1018.86
2018-12-12T03:28:21.949Z,1018.83
2018-12-12T03:28:48.109Z,1018.92
2018-12-12T03:29:14.236Z,1018.89
2018-12-12T03:29:40.347Z,1018.87
2018-12-12T03:30:06.457Z,1018.87
2018-12-12T03:30:32.626Z,1018.88
2018-12-12T03:30:58.891Z,1018.91
2018-12-12T03:31:25.053Z,1018.86
2018-12-12T03:31:51.183Z,1018.89
2018-12-12T03:32:17.309Z,1018.87
2018-12-12T03:32:43.500Z,1018.89
2018-12-12T03:33:09.626Z,1018.9
2018-12-12T03:33:35.781Z,1018.83
2018-12-12T03:34:01.890Z,1018.84
2018-12-12T03:34:28.025Z,1018.88
2018-12-12T03:34:54.137Z,1018.82
2018-12-12T03:35:20.266Z,1018.84
2018-12-12T03:35:46.398Z,1018.88
2018-12-12T03:36:12.503Z,1018.85
2018-12-12T03:36:38.672Z,1018.82
2018-12-12T03:37:04.785Z,1018.83
2018-12-12T03:37:30.917Z,1018.81
2018-12-12T03:37:57.049Z,1018.84
2018-12-12T03:38:23.160Z,1018.82
2018-12-12T03:38:49.318Z,1018.8
2018-12-12T03:39:15.453Z,1018.81
2018-12-12T03:39:41.551Z,1018.79
2018-12-12T03:40:07.664Z,1018.81
2018-12-12T03:40:33.769Z,1018.8
2018-12-12T03:40:59.903Z,1018.8
2018-12-12T03:41:26.016Z,1018.81
2018-12-12T03:41:52.142Z,1018.82
2018-12-12T03:42:18.240Z,1018.77
2018-12-12T03:42:44.350Z,1018.79
2018-12-12T03:43:10.450Z,1018.79
2018-12-12T03:43:36.557Z,1018.78
2018-12-12T03:44:02.667Z,1018.79
2018-12-12T03:44:28.768Z,1018.78
2018-12-12T03:44:54.879Z,1018.8
2018-12-12T03:45:21.037Z,1018.79
2018-12-12T03:45:47.145Z,1018.77
2018-12-12T03:46:13.240Z,1018.81
2018-12-12T03:46:39.341Z,1018.77
2018-12-12T03:47:05.447Z,1018.81
2018-12-12T03:47:31.552Z,1018.79
2018-12-12T03:47:57.678Z,1018.8
2018-12-12T03:48:23.788Z,1018.81
2018-12-12T03:48:49.889Z,1018.82
2018-12-12T03:49:15.996Z,1018.84
2018-12-12T03:49:42.100Z,1018.84
2018-12-12T03:50:08.231Z,1018.81
2018-12-12T03:50:34.343Z,1018.83
2018-12-12T03:51:00.447Z,1018.85
2018-12-12T03:51:26.578Z,1018.84
2018-12-12T03:51:52.707Z,1018.82
2018-12-12T03:52:18.819Z,1018.84
2018-12-12T03:52:44.971Z,1018.82
2018-12-12T03:53:11.105Z,1018.83
2018-12-12T03:53:37.233Z,1018.83
2018-12-12T03:54:03.337Z,1018.77
2018-12-12T03:54:29.438Z,1018.83
2018-12-12T03:54:55.543Z,1018.82
2018-12-12T03:55:21.654Z,1018.81
2018-12-12T03:55:47.760Z,1018.81
2018-12-12T03:56:13.892Z,1018.79
2018-12-12T03:56:39.989Z,1018.84
2018-12-12T03:57:06.118Z,1018.77
2018-12-12T03:57:32.224Z,1018.77
2018-12-12T03:57:58.336Z,1018.82
2018-12-12T03:58:24.438Z,1018.82
2018-12-12T03:58:50.568Z,1018.82
2018-12-12T03:59:16.676Z,1018.77
2018-12-12T03:59:42.788Z,1018.73
2018-12-12T04:00:08.958Z,1018.76
2018-12-12T04:00:35.061Z,1018.73
2018-12-12T04:01:01.166Z,1018.75
2018-12-12T04:01:27.269Z,1018.76
2018-12-12T04:01:53.450Z,1018.77
2018-12-12T04:02:19.563Z,1018.76
2018-12-12T04:02:45.701Z,1018.73
2018-12-12T04:03:11.834Z,1018.73
2018-12-12T04:03:37.992Z,1018.74
2018-12-12T04:04:04.125Z,1018.76
2018-12-12T04:04:30.235Z,1018.75
2018-12-12T04:04:56.368Z,1018.74
2018-12-12T04:05:22.532Z,1018.76
2018-12-12T04:05:48.632Z,1018.73
2018-12-12T04:06:14.798Z,1018.75
2018-12-12T04:06:40.957Z,1018.76
2018-12-12T04:07:07.102Z,1018.71
2018-12-12T04:07:33.210Z,1018.76
2018-12-12T04:07:59.340Z,1018.73
2018-12-12T04:08:25.449Z,1018.73
2018-12-12T04:08:51.552Z,1018.72
2018-12-12T04:09:17.683Z,1018.76
2018-12-12T04:09:43.915Z,1018.72
2018-12-12T04:10:10.024Z,1018.75
2018-12-12T04:10:36.128Z,1018.74
2018-12-12T04:11:02.228Z,1018.74
2018-12-12T04:11:28.331Z,1018.8
2018-12-12T04:11:54.436Z,1018.77
2018-12-12T04:12:20.608Z,1018.76
2018-12-12T04:12:46.732Z,1018.74
2018-12-12T04:13:12.874Z,1018.77
2018-12-12T04:13:38.972Z,1018.78
2018-12-12T04:14:05.076Z,1018.8
2018-12-12T04:14:31.177Z,1018.79
2018-12-12T04:14:57.290Z,1018.75
2018-12-12T04:15:23.387Z,1018.8
2018-12-12T04:15:49.514Z,1018.8
2018-12-12T04:16:15.629Z,1018.78
2018-12-12T04:16:41.732Z,1018.77
2018-12-12T04:17:07.837Z,1018.76
2018-12-12T04:17:33.947Z,1018.8
2018-12-12T04:18:00.054Z,1018.75
2018-12-12T04:18:26.159Z,1018.76
2018-12-12T04:18:52.292Z,1018.75
2018-12-12T04:19:18.395Z,1018.72
2018-12-12T04:19:44.501Z,1018.74
2018-12-12T04:20:10.644Z,1018.74
2018-12-12T04:20:36.778Z,1018.76
2018-12-12T04:21:02.905Z,1018.74
2018-12-12T04:21:29.051Z,1018.72
2018-12-12T04:21:55.179Z,1018.77
2018-12-12T04:22:21.345Z,1018.75
2018-12-12T04:22:47.451Z,1018.76
2018-12-12T04:23:14.545Z,1018.76
2018-12-12T04:23:40.738Z,1018.73
2018-12-12T04:24:06.874Z,1018.75
2018-12-12T04:24:33.004Z,1018.74
2018-12-12T04:24:59.103Z,1018.76
2018-12-12T04:25:25.246Z,1018.75
2018-12-12T04:25:51.368Z,1018.77
2018-12-12T04:26:17.471Z,1018.76
2018-12-12T04:26:43.577Z,1018.76
2018-12-12T04:27:09.686Z,1018.81
2018-12-12T04:27:35.802Z,1018.81
2018-12-12T04:28:01.912Z,1018.79
2018-12-12T04:28:28.015Z,1018.82
2018-12-12T04:28:54.128Z,1018.78
2018-12-12T04:29:20.231Z,1018.81
2018-12-12T04:29:46.327Z,1018.84
2018-12-12T04:30:12.490Z,1018.83
2018-12-12T04:30:38.616Z,1018.82
2018-12-12T04:31:04.725Z,1018.84
2018-12-12T04:31:30.835Z,1018.84
2018-12-12T04:31:56.933Z,1018.82
2018-12-12T04:32:23.074Z,1018.84
2018-12-12T04:32:49.177Z,1018.84
2018-12-12T04:33:15.308Z,1018.84
2018-12-12T04:33:41.417Z,1018.8
2018-12-12T04:34:07.521Z,1018.83
2018-12-12T04:34:34.600Z,1018.83
2018-12-12T04:35:00.701Z,1018.82
2018-12-12T04:35:26.835Z,1018.86
2018-12-12T04:35:52.936Z,1018.85
2018-12-12T04:36:19.069Z,1018.86
2018-12-12T04:36:45.197Z,1018.83
2018-12-12T04:37:11.304Z,1018.8
2018-12-12T04:37:37.437Z,1018.84
2018-12-12T04:38:03.547Z,1018.82
2018-12-12T04:38:29.671Z,1018.84
2018-12-12T04:38:55.772Z,1018.85
2018-12-12T04:39:21.880Z,1018.87
2018-12-12T04:39:48.016Z,1018.88
2018-12-12T04:40:14.153Z,1018.83
2018-12-12T04:40:40.248Z,1018.83
2018-12-12T04:41:06.359Z,1018.86
2018-12-12T04:41:32.463Z,1018.84
2018-12-12T04:41:58.755Z,1018.84
2018-12-12T04:42:24.907Z,1018.79
2018-12-12T04:42:51.015Z,1018.83
2018-12-12T04:43:17.171Z,1018.86
2018-12-12T04:43:43.287Z,1018.88
2018-12-12T04:44:09.391Z,1018.85
2018-12-12T04:44:35.497Z,1018.85
2018-12-12T04:45:01.654Z,1018.86
2018-12-12T04:45:27.765Z,1018.87
2018-12-12T04:45:53.898Z,1018.88
2018-12-12T04:46:20.031Z,1018.89
2018-12-12T04:46:46.133Z,1018.91
2018-12-12T04:47:12.236Z,1018.89
2018-12-12T04:47:38.373Z,1018.91
2018-12-12T04:48:05.467Z,1018.87
2018-12-12T04:48:31.580Z,1018.86
2018-12-12T04:48:57.675Z,1018.88
2018-12-12T04:49:23.820Z,1018.85
2018-12-12T04:49:49.926Z,1018.85
2018-12-12T04:50:16.070Z,1018.88
2018-12-12T04:50:42.174Z,1018.82
2018-12-12T04:51:08.281Z,1018.86
2018-12-12T04:51:34.417Z,1018.86
2018-12-12T04:52:00.528Z,1018.85
2018-12-12T04:52:26.633Z,1018.89
2018-12-12T04:52:52.744Z,1018.85
2018-12-12T04:53:18.845Z,1018.87
2018-12-12T04:53:44.949Z,1018.87
2018-12-12T04:54:11.048Z,1018.86
2018-12-12T04:54:37.182Z,1018.84
2018-12-12T04:55:03.284Z,1018.86
2018-12-12T04:55:29.388Z,1018.83
2018-12-12T04:55:55.495Z,1018.84
2018-12-12T04:56:21.604Z,1018.84
2018-12-12T04:56:47.705Z,1018.84
2018-12-12T04:57:13.862Z,1018.84
2018-12-12T04:57:39.962Z,1018.84
2018-12-12T04:58:06.069Z,1018.81
2018-12-12T04:58:32.204Z,1018.83
2018-12-12T04:58:58.312Z,1018.84
2018-12-12T04:59:24.447Z,1018.84
2018-12-12T04:59:50.548Z,1018.81
2018-12-12T05:00:16.691Z,1018.78
2018-12-12T05:00:42.786Z,1018.81
2018-12-12T05:01:08.927Z,1018.78
2018-12-12T05:01:35.055Z,1018.81
2018-12-12T05:02:01.196Z,1018.78
2018-12-12T05:02:27.294Z,1018.81
2018-12-12T05:02:53.428Z,1018.77
2018-12-12T05:03:19.542Z,1018.81
2018-12-12T05:03:45.646Z,1018.78
2018-12-12T05:04:11.805Z,1018.76
2018-12-12T05:04:37.908Z,1018.77
2018-12-12T05:05:04.062Z,1018.77
2018-12-12T05:05:30.114Z,1018.75
2018-12-12T05:05:56.250Z,1018.76
2018-12-12T05:06:22.351Z,1018.75
2018-12-12T05:06:48.488Z,1018.76
2018-12-12T05:07:14.589Z,1018.77
2018-12-12T05:07:40.700Z,1018.72
2018-12-12T05:08:06.825Z,1018.74
2018-12-12T05:08:32.932Z,1018.74
2018-12-12T05:08:59.037Z,1018.72
2018-12-12T05:09:25.174Z,1018.73
2018-12-12T05:09:51.278Z,1018.75
2018-12-12T05:10:17.438Z,1018.71
2018-12-12T05:10:43.570Z,1018.75
2018-12-12T05:11:09.702Z,1018.74
2018-12-12T05:11:35.838Z,1018.76
2018-12-12T05:12:01.967Z,1018.74
2018-12-12T05:12:28.065Z,1018.77
2018-12-12T05:12:54.168Z,1018.77
2018-12-12T05:13:20.313Z,1018.77
2018-12-12T05:13:46.435Z,1018.78
2018-12-12T05:14:12.525Z,1018.78
2018-12-12T05:14:38.664Z,1018.73
2018-12-12T05:15:04.794Z,1018.78
2018-12-12T05:15:30.906Z,1018.78
2018-12-12T05:15:57.040Z,1018.77
2018-12-12T05:16:23.144Z,1018.76
2018-12-12T05:16:49.244Z,1018.76
2018-12-12T05:17:15.386Z,1018.81